createdAt,value
2022-08-22T00:00:14.283Z,2.00
2022-08-22T00:02:54.721Z,2.20
2022-08-22T00:03:09.681Z,2.22
2022-08-22T00:03:12.643Z,2.50
2022-08-22T00:03:15.146Z,1.98
2022-08-22T00:06:09.924Z,2.38
2022-08-22T00:08:57.932Z,2.10
2022-08-22T00:11:46.493Z,3.13
2022-08-22T00:14:25.578Z,2.78
2022-08-22T00:17:09.814Z,2.55
2022-08-22T00:19:55.496Z,2.47
2022-08-22T00:22:39.095Z,2.60
2022-08-22T00:25:25.943Z,2.33
2022-08-22T00:28:07.986Z,1.90
2022-08-22T00:30:45.160Z,2.33
2022-08-22T00:33:22.267Z,2.40
2022-08-22T00:35:57.135Z,2.65
2022-08-22T00:38:32.729Z,2.35
2022-08-22T00:41:33.782Z,2.28
2022-08-22T00:44:12.193Z,2.83
2022-08-22T00:47:03.679Z,2.83
2022-08-22T00:50:03.541Z,2.97
2022-08-22T00:52:53.900Z,2.67
2022-08-22T00:55:53.487Z,2.05
2022-08-22T00:58:45.144Z,2.22
2022-08-22T01:01:14.493Z,2.53
2022-08-22T01:03:49.993Z,2.10
2022-08-22T01:09:00.223Z,2.05
2022-08-22T01:11:54.557Z,2.53
2022-08-22T01:14:47.575Z,1.98
2022-08-22T01:17:51.421Z,2.53
2022-08-22T01:20:54.719Z,2.22
2022-08-22T01:23:51.227Z,1.95
2022-08-22T01:26:50.551Z,2.13
2022-08-22T01:29:54.903Z,2.03
2022-08-22T01:32:57.148Z,1.98
2022-08-22T01:35:47.325Z,2.15
2022-08-22T01:38:32.969Z,1.83
2022-08-22T01:41:25.273Z,2.20
2022-08-22T01:44:01.332Z,2.60
2022-08-22T01:46:44.569Z,2.53
2022-08-22T01:49:25.061Z,2.17
2022-08-22T01:52:19.496Z,2.08
2022-08-22T01:55:00.749Z,2.13
2022-08-22T01:57:27.927Z,2.50
2022-08-22T01:59:59.218Z,2.40
2022-08-22T02:03:02.645Z,1.85
2022-08-22T02:05:45.394Z,1.90
2022-08-22T02:08:25.566Z,1.98
2022-08-22T02:11:09.423Z,2.10
2022-08-22T02:14:00.764Z,2.35
2022-08-22T02:16:37.945Z,1.90
2022-08-22T02:19:10.094Z,2.28
2022-08-22T02:21:42.951Z,1.80
2022-08-22T02:24:22.711Z,2.17
2022-08-22T02:27:22.801Z,2.33
2022-08-22T02:30:06.097Z,2.08
2022-08-22T02:33:19.355Z,2.25
2022-08-22T02:35:56.200Z,1.83
2022-08-22T02:38:36.644Z,2.28
2022-08-22T02:41:29.155Z,1.98
2022-08-22T02:44:20.983Z,1.85
2022-08-22T02:47:08.142Z,2.47
2022-08-22T02:49:44.034Z,2.13
2022-08-22T02:52:21.244Z,2.38
2022-08-22T02:54:55.400Z,2.33
2022-08-22T02:57:31.660Z,2.38
2022-08-22T03:00:31.945Z,1.90
2022-08-22T03:02:59.441Z,2.05
2022-08-22T03:05:36.639Z,2.25
2022-08-22T03:08:12.989Z,2.42
2022-08-22T03:10:45.288Z,2.45
2022-08-22T03:13:18.384Z,1.95
2022-08-22T03:15:54.787Z,2.22
2022-08-22T03:18:53.602Z,2.58
2022-08-22T03:21:41.549Z,2.42
2022-08-22T03:24:33.192Z,2.75
2022-08-22T03:27:10.339Z,2.42
2022-08-22T03:29:42.794Z,2.83
2022-08-22T03:32:22.048Z,3.17
2022-08-22T03:35:01.530Z,2.67
2022-08-22T03:37:36.800Z,2.55
2022-08-22T03:40:29.716Z,3.10
2022-08-22T03:43:39.232Z,2.53
2022-08-22T03:46:24.297Z,2.60
2022-08-22T03:49:36.591Z,2.63
2022-08-22T03:52:24.616Z,1.83
2022-08-22T03:55:13.855Z,3.05
2022-08-22T03:57:50.041Z,2.35
2022-08-22T04:00:21.751Z,3.03
2022-08-22T04:03:17.708Z,3.15
2022-08-22T04:06:11.517Z,2.03
2022-08-22T04:09:11.437Z,2.40
2022-08-22T04:11:53.433Z,2.63
2022-08-22T04:14:43.890Z,2.50
2022-08-22T04:17:47.661Z,2.80
2022-08-22T04:20:36.223Z,2.30
2022-08-22T04:23:35.456Z,2.33
2022-08-22T04:26:21.238Z,2.05
2022-08-22T04:29:02.553Z,2.63
2022-08-22T04:31:47.459Z,1.95
2022-08-22T04:34:26.317Z,2.10
2022-08-22T04:37:04.158Z,2.92
2022-08-22T04:39:45.715Z,2.58
2022-08-22T04:42:33.048Z,2.45
2022-08-22T04:45:14.047Z,2.28
2022-08-22T04:47:53.955Z,2.38
2022-08-22T04:50:34.669Z,2.45
2022-08-22T04:53:27.019Z,2.33
2022-08-22T04:56:19.838Z,2.50
2022-08-22T04:59:00.136Z,2.58
2022-08-22T05:01:45.598Z,2.75
2022-08-22T05:04:28.495Z,2.40
2022-08-22T05:07:16.576Z,2.10
2022-08-22T05:09:47.166Z,2.40
2022-08-22T05:12:19.119Z,2.10
2022-08-22T05:14:51.961Z,2.53
2022-08-22T05:19:55.093Z,2.38
2022-08-22T05:22:27.950Z,2.10
2022-08-22T05:25:01.928Z,2.40
2022-08-22T05:27:41.650Z,2.35
2022-08-22T05:30:12.384Z,2.50
2022-08-22T05:32:51.977Z,2.33
2022-08-22T05:35:24.832Z,3.15
2022-08-22T05:37:54.398Z,2.17
2022-08-22T05:40:24.863Z,2.60
2022-08-22T05:42:53.556Z,2.50
2022-08-22T05:45:22.524Z,2.50
2022-08-22T05:47:57.539Z,2.88
2022-08-22T05:50:41.712Z,2.88
2022-08-22T05:53:17.408Z,2.47
2022-08-22T05:56:18.438Z,2.83
2022-08-22T05:59:13.708Z,2.50
2022-08-22T06:01:59.626Z,2.83
2022-08-22T06:07:10.096Z,2.55
2022-08-22T06:09:57.974Z,2.78
2022-08-22T06:12:33.524Z,2.92
2022-08-22T06:15:20.964Z,3.10
2022-08-22T06:17:50.776Z,2.60
2022-08-22T06:20:24.560Z,3.03
2022-08-22T06:22:55.820Z,2.65
2022-08-22T06:25:26.752Z,3.40
2022-08-22T06:27:54.379Z,2.90
2022-08-22T06:30:22.065Z,3.17
2022-08-22T06:33:00.034Z,2.90
2022-08-22T06:35:33.562Z,2.45
2022-08-22T06:38:00.706Z,2.22
2022-08-22T06:40:29.314Z,2.75
2022-08-22T06:42:57.455Z,2.95
2022-08-22T06:45:31.762Z,2.90
2022-08-22T06:48:07.259Z,2.85
2022-08-22T06:50:40.995Z,3.03
2022-08-22T06:53:34.527Z,3.20
2022-08-22T06:56:03.611Z,2.10
2022-08-22T06:58:34.796Z,2.47
2022-08-22T07:01:24.882Z,2.95
2022-08-22T07:04:04.946Z,2.42
2022-08-22T07:06:44.129Z,3.03
2022-08-22T07:09:27.502Z,3.20
2022-08-22T07:11:57.398Z,2.63
2022-08-22T07:14:32.354Z,2.40
2022-08-22T07:17:04.718Z,2.97
2022-08-22T07:19:35.963Z,3.22
2022-08-22T07:22:23.476Z,3.38
2022-08-22T07:25:03.194Z,2.97
2022-08-22T07:28:01.375Z,3.17
2022-08-22T07:30:42.461Z,3.22
2022-08-22T07:33:38.966Z,3.30
2022-08-22T07:36:22.987Z,3.20
2022-08-22T07:39:02.279Z,3.90
2022-08-22T07:41:58.473Z,3.22
2022-08-22T07:44:32.538Z,3.05
2022-08-22T07:47:07.068Z,3.00
2022-08-22T07:49:57.553Z,2.33
2022-08-22T07:52:26.051Z,2.78
2022-08-22T07:55:20.533Z,2.10
2022-08-22T07:57:53.876Z,1.67
2022-08-22T08:00:22.689Z,2.10
2022-08-22T08:02:57.521Z,2.30
2022-08-22T08:05:26.814Z,1.73
2022-08-22T08:07:56.173Z,2.45
2022-08-22T08:10:28.133Z,1.40
2022-08-22T08:13:02.464Z,1.98
2022-08-22T08:15:31.800Z,1.90
2022-08-22T08:18:04.316Z,1.50
2022-08-22T08:20:34.332Z,2.00
2022-08-22T08:23:01.646Z,2.55
2022-08-22T08:25:30.953Z,2.10
2022-08-22T08:27:59.462Z,1.80
2022-08-22T08:30:38.699Z,2.20
2022-08-22T08:33:25.195Z,1.85
2022-08-22T08:36:09.423Z,1.95
2022-08-22T08:38:45.395Z,1.55
2022-08-22T08:41:31.914Z,1.95
2022-08-22T08:44:01.189Z,1.83
2022-08-22T08:46:55.559Z,2.10
2022-08-22T08:49:38.779Z,1.48
2022-08-22T08:52:24.420Z,2.10
2022-08-22T08:55:01.527Z,1.58
2022-08-22T08:57:44.658Z,1.65
2022-08-22T09:00:20.018Z,1.30
2022-08-22T09:05:30.975Z,1.60
2022-08-22T09:08:19.418Z,1.40
2022-08-22T09:11:09.820Z,1.15
2022-08-22T09:14:19.910Z,1.85
2022-08-22T09:17:04.624Z,1.50
2022-08-22T09:20:17.719Z,2.00
2022-08-22T09:22:50.708Z,1.85
2022-08-22T09:25:41.246Z,2.28
2022-08-22T09:28:23.135Z,2.15
2022-08-22T09:31:17.014Z,1.63
2022-08-22T09:34:05.135Z,1.77
2022-08-22T09:37:00.928Z,1.20
2022-08-22T09:40:04.779Z,2.13
2022-08-22T09:42:40.366Z,1.98
2022-08-22T09:45:11.325Z,1.23
2022-08-22T09:47:58.126Z,1.77
2022-08-22T09:50:56.468Z,1.60
2022-08-22T09:54:10.590Z,2.13
2022-08-22T09:56:52.078Z,1.67
2022-08-22T09:59:28.417Z,1.52
2022-08-22T10:02:15.656Z,1.63
2022-08-22T10:04:48.919Z,1.40
2022-08-22T10:07:35.143Z,1.65
2022-08-22T10:10:13.040Z,1.20
2022-08-22T10:12:58.854Z,1.63
2022-08-22T10:15:42.705Z,1.50
2022-08-22T10:18:31.623Z,1.63
2022-08-22T10:21:25.068Z,1.60
2022-08-22T10:24:25.338Z,1.50
2022-08-22T10:27:07.142Z,1.25
2022-08-22T10:29:52.819Z,1.20
2022-08-22T10:32:34.392Z,1.48
2022-08-22T10:35:33.750Z,1.30
2022-08-22T10:38:12.310Z,1.42
2022-08-22T10:40:53.285Z,1.45
2022-08-22T10:43:29.091Z,1.20
2022-08-22T10:46:12.557Z,1.20
2022-08-22T10:48:56.257Z,0.90
2022-08-22T10:51:49.441Z,1.48
2022-08-22T10:54:42.000Z,1.48
2022-08-22T10:57:23.080Z,1.00
2022-08-22T11:00:15.848Z,1.58
2022-08-22T11:03:27.699Z,0.93
2022-08-22T11:06:22.242Z,1.58
2022-08-22T11:09:04.611Z,1.30
2022-08-22T11:11:39.667Z,1.42
2022-08-22T11:14:17.689Z,1.75
2022-08-22T11:17:01.732Z,1.60
2022-08-22T11:20:23.719Z,1.60
2022-08-22T11:23:19.387Z,1.30
2022-08-22T11:26:29.925Z,1.33
2022-08-22T11:29:23.196Z,1.45
2022-08-22T11:32:16.476Z,1.38
2022-08-22T11:35:13.760Z,1.50
2022-08-22T11:38:00.548Z,0.90
2022-08-22T11:40:46.058Z,1.23
2022-08-22T11:43:32.518Z,1.38
2022-08-22T11:46:04.652Z,1.48
2022-08-22T11:49:04.514Z,1.20
2022-08-22T11:52:08.616Z,1.02
2022-08-22T11:54:45.852Z,0.90
2022-08-22T11:57:18.633Z,1.38
2022-08-22T11:59:44.925Z,1.33
2022-08-22T12:02:19.606Z,1.27
2022-08-22T12:04:55.738Z,1.10
2022-08-22T12:07:33.237Z,1.13
2022-08-22T12:10:15.278Z,1.30
2022-08-22T12:13:03.301Z,1.10
2022-08-22T12:15:46.202Z,1.17
2022-08-22T12:18:41.254Z,1.73
2022-08-22T12:21:22.673Z,0.77
2022-08-22T12:24:00.957Z,1.40
2022-08-22T12:27:10.506Z,0.90
2022-08-22T12:30:04.825Z,0.90
2022-08-22T12:32:58.870Z,0.93
2022-08-22T12:35:38.295Z,0.85
2022-08-22T12:38:28.947Z,0.80
2022-08-22T12:41:35.534Z,0.88
2022-08-22T12:44:19.599Z,0.70
2022-08-22T12:47:21.330Z,0.90
2022-08-22T12:50:21.654Z,1.10
2022-08-22T12:53:09.110Z,1.05
2022-08-22T12:55:52.765Z,0.88
2022-08-22T12:58:51.944Z,1.10
2022-08-22T13:01:19.343Z,0.93
2022-08-22T13:03:56.858Z,1.20
2022-08-22T13:06:35.141Z,1.35
2022-08-22T13:09:37.420Z,1.27
2022-08-22T13:12:31.084Z,0.90
2022-08-22T13:15:06.778Z,1.10
2022-08-22T13:17:37.532Z,0.90
2022-08-22T13:20:32.832Z,0.90
2022-08-22T13:23:05.149Z,0.90
2022-08-22T13:26:01.182Z,1.00
2022-08-22T13:28:30.154Z,0.80
2022-08-22T13:30:58.415Z,1.50
2022-08-22T13:33:33.013Z,1.00
2022-08-22T13:36:10.838Z,0.90
2022-08-22T13:38:49.178Z,0.80
2022-08-22T13:41:29.032Z,1.02
2022-08-22T13:44:33.312Z,1.02
2022-08-22T13:47:14.138Z,1.02
2022-08-22T13:49:46.646Z,1.10
2022-08-22T13:52:29.073Z,1.10
2022-08-22T13:55:12.448Z,1.00
2022-08-22T13:58:03.156Z,0.90
2022-08-22T14:00:58.170Z,1.10
2022-08-22T14:03:35.016Z,1.30
2022-08-22T14:06:37.171Z,1.42
2022-08-22T14:09:03.554Z,1.17
2022-08-22T14:11:49.132Z,0.70
2022-08-22T14:14:27.878Z,1.13
2022-08-22T14:16:59.273Z,1.20
2022-08-22T14:19:52.916Z,1.20
2022-08-22T14:22:32.552Z,0.82
2022-08-22T14:25:18.861Z,0.85
2022-08-22T14:27:51.150Z,0.98
2022-08-22T14:30:21.320Z,1.45
2022-08-22T14:32:56.232Z,1.08
2022-08-22T14:35:41.304Z,1.02
2022-08-22T14:38:17.216Z,0.90
2022-08-22T14:40:45.534Z,1.20
2022-08-22T14:43:25.155Z,0.95
2022-08-22T14:46:05.674Z,1.27
2022-08-22T14:48:43.728Z,0.90
2022-08-22T14:51:19.876Z,1.10
2022-08-22T14:53:47.747Z,0.98
2022-08-22T14:56:29.536Z,1.25
2022-08-22T14:59:08.478Z,1.20
2022-08-22T15:01:54.542Z,0.90
2022-08-22T15:04:40.992Z,0.75
2022-08-22T15:07:09.507Z,0.77
2022-08-22T15:09:43.276Z,0.77
2022-08-22T15:12:33.973Z,0.88
2022-08-22T15:15:04.833Z,0.73
2022-08-22T15:17:45.155Z,1.10
2022-08-22T15:20:27.633Z,1.00
2022-08-22T15:23:10.205Z,0.95
2022-08-22T15:25:41.263Z,1.00
2022-08-22T15:28:20.065Z,0.77
2022-08-22T15:30:59.241Z,0.93
2022-08-22T15:33:39.528Z,1.42
2022-08-22T15:36:27.425Z,1.05
2022-08-22T15:39:28.449Z,0.95
2022-08-22T15:41:56.779Z,0.90
2022-08-22T15:44:31.117Z,0.85
2022-08-22T15:47:24.169Z,0.88
2022-08-22T15:50:00.220Z,0.70
2022-08-22T15:52:33.006Z,0.95
2022-08-22T15:55:15.717Z,0.85
2022-08-22T15:57:50.955Z,0.95
2022-08-22T16:03:04.623Z,1.10
2022-08-22T16:05:33.766Z,1.05
2022-08-22T16:08:03.270Z,1.33
2022-08-22T16:10:37.437Z,0.65
2022-08-22T16:13:37.991Z,1.00
2022-08-22T16:16:06.905Z,0.80
2022-08-22T16:18:33.185Z,1.05
2022-08-22T16:21:08.889Z,1.00
2022-08-22T16:23:50.529Z,1.23
2022-08-22T16:26:23.546Z,1.02
2022-08-22T16:28:59.633Z,1.13
2022-08-22T16:31:44.567Z,1.08
2022-08-22T16:34:17.059Z,0.80
2022-08-22T16:37:12.573Z,1.05
2022-08-22T16:39:46.498Z,0.82
2022-08-22T16:42:12.844Z,1.30
2022-08-22T16:44:45.586Z,0.65
2022-08-22T16:47:30.228Z,0.98
2022-08-22T16:50:17.601Z,1.10
2022-08-22T16:53:00.154Z,0.90
2022-08-22T16:55:29.492Z,1.20
2022-08-22T16:58:07.249Z,1.10
2022-08-22T17:00:37.094Z,1.08
2022-08-22T17:03:09.470Z,1.15
2022-08-22T17:05:51.143Z,0.98
2022-08-22T17:08:47.718Z,1.05
2022-08-22T17:11:52.683Z,1.38
2022-08-22T17:14:47.426Z,1.10
2022-08-22T17:17:31.852Z,1.23
2022-08-22T17:20:22.258Z,1.13
2022-08-22T17:23:06.582Z,1.20
2022-08-22T17:25:46.428Z,1.25
2022-08-22T17:28:36.863Z,1.23
2022-08-22T17:31:31.702Z,1.40
2022-08-22T17:34:20.032Z,1.52
2022-08-22T17:37:08.542Z,1.60
2022-08-22T17:40:15.818Z,1.20
2022-08-22T17:42:54.184Z,1.08
2022-08-22T17:45:43.052Z,1.60
2022-08-22T17:48:19.658Z,1.60
2022-08-22T17:50:55.495Z,1.35
2022-08-22T17:53:27.570Z,1.05
2022-08-22T17:55:57.172Z,1.20
2022-08-22T17:58:37.619Z,0.85
2022-08-22T18:01:34.507Z,1.60
2022-08-22T18:04:03.681Z,1.10
2022-08-22T18:06:36.262Z,1.75
2022-08-22T18:09:16.274Z,1.52
2022-08-22T18:11:51.938Z,1.40
2022-08-22T18:14:30.029Z,1.30
2022-08-22T18:16:58.333Z,2.03
2022-08-22T18:20:02.466Z,1.27
2022-08-22T18:22:56.563Z,1.30
2022-08-22T18:25:22.978Z,1.20
2022-08-22T18:28:08.720Z,1.70
2022-08-22T18:33:34.626Z,1.60
2022-08-22T18:36:10.668Z,1.48
2022-08-22T18:38:57.636Z,1.40
2022-08-22T18:41:36.590Z,1.45
2022-08-22T18:44:22.931Z,1.50
2022-08-22T18:46:57.985Z,1.30
2022-08-22T18:49:24.610Z,1.33
2022-08-22T18:52:05.993Z,1.38
2022-08-22T18:55:00.270Z,1.60
2022-08-22T18:57:49.671Z,1.92
2022-08-22T19:00:22.262Z,1.50
2022-08-22T19:03:03.650Z,1.73
2022-08-22T19:06:01.599Z,1.25
2022-08-22T19:08:56.401Z,1.55
2022-08-22T19:11:33.833Z,1.92
2022-08-22T19:14:16.349Z,1.63
2022-08-22T19:16:53.713Z,2.30
2022-08-22T19:19:58.684Z,2.88
2022-08-22T19:22:32.317Z,2.33
2022-08-22T19:25:11.523Z,2.05
2022-08-22T19:27:41.616Z,1.83
2022-08-22T19:30:33.626Z,1.40
2022-08-22T19:33:07.810Z,1.92
2022-08-22T19:36:04.931Z,1.92
2022-08-22T19:38:54.624Z,1.58
2022-08-22T19:41:40.062Z,1.75
2022-08-22T19:44:37.403Z,2.38
2022-08-22T19:47:19.116Z,1.52
2022-08-22T19:49:54.541Z,1.70
2022-08-22T19:55:23.611Z,1.30
2022-08-22T19:57:53.240Z,1.90
2022-08-22T20:00:24.614Z,1.73
2022-08-22T20:03:21.878Z,1.63
2022-08-22T20:06:43.123Z,1.30
2022-08-22T20:09:26.910Z,1.50
2022-08-22T20:12:06.913Z,1.67
2022-08-22T20:14:36.083Z,1.58
2022-08-22T20:17:23.988Z,1.52
2022-08-22T20:20:35.149Z,1.65
2022-08-22T20:23:22.865Z,1.60
2022-08-22T20:25:52.189Z,1.40
2022-08-22T20:28:27.657Z,1.60
2022-08-22T20:30:59.497Z,1.60
2022-08-22T20:33:33.951Z,1.85
2022-08-22T20:36:13.797Z,1.30
2022-08-22T20:38:56.604Z,1.65
2022-08-22T20:41:32.353Z,1.65
2022-08-22T20:44:10.259Z,1.88
2022-08-22T20:46:53.497Z,1.65
2022-08-22T20:49:24.796Z,1.58
2022-08-22T20:52:01.525Z,1.85
2022-08-22T20:54:37.313Z,1.52
2022-08-22T20:57:13.370Z,1.60
2022-08-22T20:59:49.061Z,1.63
2022-08-22T21:02:23.179Z,1.55
2022-08-22T21:05:00.228Z,1.73
2022-08-22T21:07:28.330Z,2.30
2022-08-22T21:09:57.945Z,1.38
2022-08-22T21:12:24.443Z,1.70
2022-08-22T21:14:50.791Z,1.73
2022-08-22T21:17:17.171Z,1.60
2022-08-22T21:19:43.636Z,1.65
2022-08-22T21:22:28.846Z,2.20
2022-08-22T21:24:57.256Z,1.80
2022-08-22T21:27:31.468Z,1.67
2022-08-22T21:30:01.898Z,1.40
2022-08-22T21:32:36.554Z,2.10
2022-08-22T21:35:05.518Z,1.40
2022-08-22T21:37:44.843Z,1.40
2022-08-22T21:40:21.395Z,1.55
2022-08-22T21:43:05.085Z,1.77
2022-08-22T21:45:37.308Z,1.40
2022-08-22T21:48:34.223Z,1.95
2022-08-22T21:51:37.907Z,1.67
2022-08-22T21:54:26.401Z,1.70
2022-08-22T21:56:55.378Z,1.45
2022-08-22T21:59:50.968Z,1.92
2022-08-22T22:02:37.035Z,1.50
2022-08-22T22:05:11.322Z,1.88
2022-08-22T22:07:40.963Z,1.67
2022-08-22T22:10:10.116Z,1.60
2022-08-22T22:12:39.655Z,1.85
2022-08-22T22:15:06.713Z,1.88
2022-08-22T22:17:33.293Z,1.58
2022-08-22T22:19:59.892Z,1.80
2022-08-22T22:22:26.537Z,1.67
2022-08-22T22:24:52.945Z,1.70
2022-08-22T22:27:19.285Z,1.73
2022-08-22T22:29:45.661Z,1.85
2022-08-22T22:32:12.361Z,2.10
2022-08-22T22:34:38.784Z,1.63
2022-08-22T22:37:07.551Z,1.83
2022-08-22T22:39:35.938Z,1.83
2022-08-22T22:42:03.376Z,1.75
2022-08-22T22:44:29.797Z,1.83
2022-08-22T22:46:57.624Z,2.25
2022-08-22T22:49:24.434Z,2.10
2022-08-22T22:51:50.917Z,1.75
2022-08-22T22:54:17.497Z,1.60
2022-08-22T22:56:44.164Z,1.63
2022-08-22T22:59:14.702Z,2.30
2022-08-22T23:02:21.603Z,2.17
2022-08-22T23:07:22.306Z,1.75
2022-08-22T23:09:48.887Z,1.80
2022-08-22T23:12:16.134Z,2.33
2022-08-22T23:14:42.827Z,1.98
2022-08-22T23:17:09.262Z,2.00
2022-08-22T23:19:35.883Z,1.90
2022-08-22T23:22:02.344Z,2.03
2022-08-22T23:24:30.446Z,2.15
2022-08-22T23:26:57.509Z,2.28
2022-08-22T23:29:24.661Z,1.92
2022-08-22T23:32:02.177Z,1.65
2022-08-22T23:34:35.745Z,1.60
2022-08-22T23:37:06.431Z,2.22
2022-08-22T23:39:34.590Z,2.40
2022-08-22T23:42:02.213Z,1.70
2022-08-22T23:44:31.393Z,2.13
2022-08-22T23:46:58.813Z,1.88
2022-08-22T23:49:26.455Z,2.17
2022-08-22T23:51:53.011Z,2.00
2022-08-22T23:54:19.506Z,1.95
2022-08-22T23:56:49.533Z,1.98
2022-08-22T23:59:19.117Z,2.08
